KPKB/PKB METAR and TAF weather

Enter ICAO airport designator
Station Type Date Time Source
KPKB METAR 2020/04/05 06:53 UTC NOAA

KPKB 050653Z AUTO A2999 RMK AO2 SLPNO PWINO FZRANO $


Station Type Date Time Source
KPKB Decoded METAR 2020/04/05 06:53 UTC NOAA

MID-OHIO VALLEY RGNL AIRPORT, WV, United States (KPKB) 39-20N 81-27W
Apr 05, 2020 - 02:53 AM EDT / 2020.04.05 0653 UTC
Pressure (altimeter): 29.99 in. Hg (1015 hPa)
ob: KPKB 050653Z AUTO A2999 RMK AO2 SLPNO PWINO FZRANO
cycle: 7

Station Type Date Time Source
KPKB TAF 2020/04/05 06:22 UTC NOAA

TAF KPKB 050520Z 0506/0606 00000KT P6SM BKN090
FM051300 VRB03KT P6SM VCSH BKN050
FM052000 32003KT P6SM BKN050
FM060500 00000KT P6SM BKN030

Example: see airport list